Aviation Digital Data Service (ADDS)

Output produced by METARs form (0526 UTC 25 June 2017)
found at http://aviationweather.gov/adds/metars/
 
KCON 250520Z 2506/2606 27004KT P6SM FEW100 
     FM251500 28007KT P6SM SCT250 
     FM251700 26008G14KT P6SM BKN100